Gulfport, MS

10:05 AM CDT on July 26, 2016 (GMT -0500)
| | Change Station

Elev -9999 ft 0.00 °N, 0.00 °E | Updated

Cloudy
Cloudy
83 °F
Feels Like 90 °F
N
9
Wind Variable Wind from SSE
Gusts mph

Today
High -- | Low -- °F
--% Chance of Precip.
Yesterday
High -- | Low -- °F
Precip. -- in
Pressure 29.94 in
Visibility 10.0 miles
Clouds Few 4000 ft
Scattered Clouds 6000 ft
Scattered Clouds 7000 ft
Heat Index 90 °F
Dew Point 76 °F
Humidity 79%
Rainfall --
Snow Depth Not available.
6:11 AM 7:53 PM
Waning Gibbous, 54% visible
METAR KGPT 261453Z 04005KT 10SM FEW040 SCT060 SCT070 27/26 A2994 RMK AO2 RAB19E49 SLP137 P0001 60002 T02720256 50005
Pressure 29.94 in
Visibility 10.0 miles
Clouds Few 4000 ft
Scattered Clouds 6000 ft
Scattered Clouds 7000 ft
Heat Index 90 °F
Dew Point 76 °F
Humidity 79%
Rainfall --
Snow Depth Not available.
6:11 AM 7:53 PM
Waning Gibbous, 54% visible
METAR KGPT 261453Z 04005KT 10SM FEW040 SCT060 SCT070 27/26 A2994 RMK AO2 RAB19E49 SLP137 P0001 60002 T02720256 50005

10-Day Weather Forecast

Almanac

Astronomy

Jul. 26, 2016 Rise Set
Actual Time
Civil Twilight
Nautical Twilight
Astronomical Twilight
Moon
Length of Visible Light
Length of Day
Tomorrow will be .
, % of the Moon is Illuminated

Today's Extremes

State Highs State Lows

Community

WunderPhotos

Upload Photos

1,927,608 photos uploaded!

WunderBlog® & News

Nearby

Air Quality

  Air Quality AQ Index Pollutant
Not available.

Snow Depth

Station Depth Elevation

Earthquake Activity

City Distance Mag. Time & Date
Minimum magnitude displayed is 2.5.

Coastal Water Temperatures

Place Temperature

Stations

Nearby Weather Stations

Station Location Temp. Windchill Dew Point Humidity Wind Precip. Elev Updated Type
                   

Watches & Warnings

There are currently no watches in effect.